Time;durP1;ratioP1;P1;durP2;ratioP2;P2;SDS_P1;SDS_P2;PMS_P1;PMS_P2;Temp;Humidity;BMP_temperature;BMP_pressure;BME280_temperature;BME280_humidity;BME280_pressure;Samples;Min_cycle;Max_cycle;Signal;HPM_P1;HPM_P2
2023/01/30 00:00:06;;;;;;;19.42;13.57;;;;;;;-0.45;65.10;99617.06;5107641;28;20040;-73
2023/01/30 00:02:33;;;;;;;16.90;12.32;;;;;;;-0.45;65.18;99609.28;5106367;28;20199;-74
2023/01/30 00:05:00;;;;;;;17.23;12.70;;;;;;;-0.45;65.28;99613.59;5108186;28;20048;-73
2023/01/30 00:07:28;;;;;;;17.27;12.43;;;;;;;-0.48;65.16;99614.50;5106454;28;20032;-74
2023/01/30 00:09:55;;;;;;;20.48;13.63;;;;;;;-0.45;65.14;99617.06;5107497;28;20039;-74
2023/01/30 00:12:23;;;;;;;17.52;13.48;;;;;;;-0.44;65.19;99605.78;5107704;28;20047;-74
2023/01/30 00:14:49;;;;;;;20.40;13.70;;;;;;;-0.44;65.13;99599.72;5107975;28;20162;-73
2023/01/30 00:17:16;;;;;;;16.67;12.35;;;;;;;-0.44;65.10;99604.91;5107794;28;20040;-73
2023/01/30 00:19:43;;;;;;;20.35;14.82;;;;;;;-0.45;65.30;99614.47;5107298;28;20058;-74
2023/01/30 00:22:09;;;;;;;19.38;14.07;;;;;;;-0.45;65.31;99598.84;5107227;28;20036;-74
2023/01/30 00:24:38;;;;;;;19.35;13.65;;;;;;;-0.47;65.37;99592.78;5106642;28;20036;-73
2023/01/30 00:27:04;;;;;;;18.90;14.15;;;;;;;-0.47;65.24;99595.41;5106314;28;20032;-74
2023/01/30 00:29:31;;;;;;;17.92;13.50;;;;;;;-0.47;65.26;99584.97;5106245;28;20208;-74
2023/01/30 00:31:58;;;;;;;18.50;13.77;;;;;;;-0.46;65.33;99598.88;5107104;28;20209;-74
2023/01/30 00:34:25;;;;;;;17.90;14.25;;;;;;;-0.46;65.27;99585.84;5106188;28;20046;-75
2023/01/30 00:36:52;;;;;;;17.92;12.85;;;;;;;-0.47;65.26;99577.16;5106062;28;20039;-74
2023/01/30 00:39:18;;;;;;;19.77;12.82;;;;;;;-0.49;65.59;99570.25;5106052;28;20307;-74
2023/01/30 00:47:16;;;;;;;21.15;15.25;;;;;;;-0.50;65.39;99551.16;5106472;28;20044;-74
2023/01/30 00:49:43;;;;;;;19.80;14.52;;;;;;;-0.50;65.32;99558.09;5105860;28;20040;-75
2023/01/30 00:52:10;;;;;;;20.55;13.73;;;;;;;-0.50;65.35;99551.16;5105807;28;20040;-75
2023/01/30 00:54:36;;;;;;;18.13;13.70;;;;;;;-0.51;65.56;99544.22;5107179;28;20047;-74
2023/01/30 00:57:04;;;;;;;19.52;14.20;;;;;;;-0.51;65.46;99530.34;5107104;28;20046;-75
2023/01/30 00:59:31;;;;;;;19.52;13.40;;;;;;;-0.52;65.41;99531.22;5107023;28;20047;-74
2023/01/30 01:01:58;;;;;;;20.30;13.75;;;;;;;-0.51;65.16;99545.97;5106495;28;20046;-74
2023/01/30 01:04:25;;;;;;;19.90;13.93;;;;;;;-0.52;65.36;99526.88;5105090;28;20059;-74
2023/01/30 01:06:52;;;;;;;17.10;13.52;;;;;;;-0.53;65.32;99519.94;5106707;28;20051;-74
2023/01/30 01:09:19;;;;;;;20.27;14.93;;;;;;;-0.53;65.48;99524.28;5106919;28;20047;-75
2023/01/30 01:11:45;;;;;;;20.45;14.35;;;;;;;-0.52;65.45;99518.19;5106553;28;20295;-74
2023/01/30 01:14:13;;;;;;;19.00;13.63;;;;;;;-0.52;65.34;99515.59;5105457;28;20040;-74
2023/01/30 01:16:40;;;;;;;19.40;14.38;;;;;;;-0.52;65.25;99497.38;5105929;28;20188;-73
2023/01/30 01:19:07;;;;;;;21.17;14.18;;;;;;;-0.52;65.25;99492.16;5105766;28;20044;-73
2023/01/30 01:21:34;;;;;;;19.17;13.55;;;;;;;-0.54;65.39;99488.69;5105257;28;20308;-72
2023/01/30 01:24:00;;;;;;;20.08;13.98;;;;;;;-0.52;65.29;99490.41;5106392;28;20051;-73
2023/01/30 01:26:27;;;;;;;19.17;15.05;;;;;;;-0.53;65.26;99482.63;5105165;28;20040;-74
2023/01/30 01:28:55;;;;;;;19.75;14.18;;;;;;;-0.54;65.37;99478.28;5105176;28;20028;-74
2023/01/30 01:31:24;;;;;;;17.58;12.95;;;;;;;-0.54;65.39;99486.09;5105135;28;20252;-73
2023/01/30 01:33:51;;;;;;;19.27;13.55;;;;;;;-1.04;65.39;99391.91;5106509;28;20047;-74
2023/01/30 01:36:18;;;;;;;19.98;14.45;;;;;;;-0.54;65.40;99478.28;5106446;28;20035;-74
2023/01/30 01:38:45;;;;;;;21.30;14.35;;;;;;;-0.55;65.24;99484.38;5104965;28;20322;-75
2023/01/30 01:41:12;;;;;;;20.77;13.52;;;;;;;-0.54;65.21;99480.91;5105052;28;20193;-74
2023/01/30 01:44:00;;;;;;;20.13;14.43;;;;;;;-0.54;65.69;99470.47;5105034;28;20065;-75
2023/01/30 01:46:34;;;;;;;19.45;14.02;;;;;;;-0.58;65.45;99464.44;5106369;28;20097;-75
2023/01/30 01:49:05;;;;;;;18.80;13.23;;;;;;;-0.57;65.30;99468.78;5105768;28;20046;-74
2023/01/30 01:51:38;;;;;;;17.75;13.40;;;;;;;-0.56;65.33;99448.81;5104900;28;20051;-74
2023/01/30 01:54:09;;;;;;;20.95;14.20;;;;;;;-0.57;65.48;99445.34;5105721;28;20040;-74
2023/01/30 01:56:41;;;;;;;17.05;12.65;;;;;;;-0.57;65.44;99452.28;5104794;28;20300;-74
2023/01/30 01:59:13;;;;;;;20.00;14.15;;;;;;;-0.57;65.45;99442.72;5105583;28;20044;-74
2023/01/30 02:01:41;;;;;;;18.77;13.20;;;;;;;-0.56;65.35;99435.78;5104797;28;20043;-74
2023/01/30 02:04:11;;;;;;;18.88;13.23;;;;;;;-0.57;65.33;99442.72;5105416;28;20067;-76
2023/01/30 02:06:42;;;;;;;18.73;12.98;;;;;;;-0.57;65.18;99434.91;5106132;28;20306;-74
2023/01/30 02:09:10;;;;;;;19.25;13.13;;;;;;;-0.56;65.39;99426.25;5104656;28;20045;-74
2023/01/30 02:11:45;;;;;;;18.35;13.80;;;;;;;-1.02;65.50;99361.56;5104757;28;20036;-74
2023/01/30 02:14:14;;;;;;;17.77;13.40;;;;;;;-0.56;65.30;99431.44;5104651;28;20032;-76
2023/01/30 02:16:44;;;;;;;20.63;13.35;;;;;;;-0.58;65.21;99424.53;5105780;28;20042;-75
2023/01/30 02:19:28;;;;;;;20.65;14.55;;;;;;;-0.57;65.34;99419.31;5106030;28;20046;-74
2023/01/30 02:22:15;;;;;;;18.63;13.20;;;;;;;-0.58;65.30;99411.50;5105715;28;20325;-75
2023/01/30 02:25:14;;;;;;;19.02;13.93;;;;;;;-0.59;65.39;99410.66;5104620;28;20036;-74
2023/01/30 02:28:07;;;;;;;21.27;13.73;;;;;;;-0.61;65.38;99409.81;5085003;28;20161;-74
2023/01/30 02:31:07;;;;;;;17.52;13.75;;;;;;;-0.61;65.50;99412.41;5107664;28;20048;-74
2023/01/30 02:33:44;;;;;;;18.05;14.02;;;;;;;-1.70;65.20;99216.53;5109727;28;20109;-73
2023/01/30 02:36:19;;;;;;;18.85;14.10;;;;;;;-0.61;65.40;99420.22;5109318;28;20082;-74
2023/01/30 02:38:49;;;;;;;;;;;;;;;-0.66;65.59;99403.78;5110163;28;20054;-74
2023/01/30 02:41:25;;;;;;;15.73;11.65;;;;;;;-0.65;65.47;99400.28;5108423;28;20300;-74
2023/01/30 02:44:03;;;;;;;16.52;12.52;;;;;;;-0.62;65.51;99396.78;5109223;28;20048;-74
2023/01/30 02:46:41;;;;;;;16.65;12.73;;;;;;;-1.11;65.37;99322.63;5108278;28;20047;-74
2023/01/30 02:49:13;;;;;;;18.40;13.98;;;;;;;-0.80;65.57;99371.81;5109619;28;20054;-75
2023/01/30 02:51:43;;;;;;;16.58;12.85;;;;;;;-0.60;65.32;99390.69;5108226;28;20196;-75
2023/01/30 02:54:12;;;;;;;17.58;12.55;;;;;;;-0.58;65.16;99396.75;5108147;28;20050;-74
2023/01/30 02:56:48;;;;;;;17.02;12.55;;;;;;;-1.75;65.34;99189.72;5108944;28;20032;-75
2023/01/30 02:59:20;;;;;;;18.98;13.65;;;;;;;-0.59;65.28;99373.34;5107942;28;20044;-74
2023/01/30 03:02:13;;;;;;;19.55;13.38;;;;;;;-0.59;65.76;99368.13;5109418;28;20040;-74
2023/01/30 03:05:01;;;;;;;15.80;11.75;;;;;;;-0.59;65.40;99373.34;5108670;28;20067;-74
2023/01/30 03:07:41;;;;;;;16.40;11.85;;;;;;;-0.61;65.60;99356.88;5109286;28;20276;-74
2023/01/30 03:10:13;;;;;;;18.98;12.88;;;;;;;-0.59;65.35;99355.13;5107849;28;20040;-74
2023/01/30 03:12:48;;;;;;;16.80;11.52;;;;;;;-0.59;65.31;99362.94;5107780;28;20207;-74
2023/01/30 03:15:21;;;;;;;;;;;;;;;-0.64;65.58;99360.38;5108248;28;20093;-74
2023/01/30 03:17:51;;;;;;;17.45;12.10;;;;;;;-0.62;65.43;99357.75;5108842;28;19991;-74
2023/01/30 03:20:20;;;;;;;15.32;11.23;;;;;;;-1.06;65.47;99297.44;5109057;28;20058;-74
2023/01/30 03:22:48;;;;;;;17.05;11.93;;;;;;;-1.04;65.23;99281.81;5109014;28;20036;-74
2023/01/30 03:25:20;;;;;;;15.95;11.70;;;;;;;-0.57;65.39;99340.34;5107561;28;20042;-75
2023/01/30 03:27:48;;;;;;;15.82;11.32;;;;;;;-0.56;65.28;99344.66;5107514;28;20036;-73
2023/01/30 03:30:15;;;;;;;17.25;12.60;;;;;;;-0.56;65.06;99353.34;5108851;28;20039;-74
2023/01/30 03:32:42;;;;;;;15.95;11.07;;;;;;;-0.55;65.13;99354.22;5107435;28;20040;-74
2023/01/30 03:35:10;;;;;;;16.40;12.15;;;;;;;-0.54;65.34;99341.19;5108506;28;20047;-74
2023/01/30 03:37:37;;;;;;;17.15;12.68;;;;;;;-0.52;65.09;99325.53;5108362;28;20194;-74
2023/01/30 03:40:05;;;;;;;16.83;11.27;;;;;;;-0.52;64.88;99320.34;5108682;28;20044;-74
2023/01/30 03:42:32;;;;;;;17.65;12.45;;;;;;;-0.52;65.16;99316.00;5107656;28;20074;-74
2023/01/30 03:44:59;;;;;;;17.20;12.45;;;;;;;-0.51;65.04;99309.91;5108588;28;20048;-74
2023/01/30 03:47:26;;;;;;;19.20;12.85;;;;;;;-0.50;65.40;99310.75;5108515;28;20047;-73
2023/01/30 03:49:52;;;;;;;18.90;13.93;;;;;;;-0.49;64.99;99307.28;5107133;28;20046;-73
2023/01/30 03:52:21;;;;;;;18.27;12.50;;;;;;;-1.56;64.83;99117.66;5108492;28;20050;-74
2023/01/30 03:54:47;;;;;;;16.50;12.48;;;;;;;-0.48;64.95;99294.25;5107675;28;20113;-75
2023/01/30 03:57:14;;;;;;;19.13;13.05;;;;;;;-0.47;64.86;99284.69;5108351;28;20192;-74
2023/01/30 03:59:41;;;;;;;17.75;12.23;;;;;;;-0.48;64.95;99275.16;5106807;28;20038;-74
2023/01/30 04:02:08;;;;;;;17.98;13.10;;;;;;;-0.48;64.86;99278.63;5106832;28;20326;-74
2023/01/30 04:04:35;;;;;;;15.30;11.55;;;;;;;-0.48;64.95;99283.81;5107453;28;20109;-75
2023/01/30 04:07:03;;;;;;;17.33;13.05;;;;;;;-0.73;64.84;99269.38;5107661;28;20057;-74
2023/01/30 04:09:31;;;;;;;19.55;12.80;;;;;;;-0.45;64.87;99291.59;5107683;28;20235;-74
2023/01/30 04:11:57;;;;;;;17.48;13.50;;;;;;;-0.46;64.82;99287.28;5107582;28;20052;-73
2023/01/30 04:14:24;;;;;;;14.43;11.40;;;;;;;-0.43;64.71;99291.59;5107694;28;20039;-74
2023/01/30 04:16:51;;;;;;;16.30;12.38;;;;;;;-0.42;64.54;99288.09;5106667;28;20035;-74
2023/01/30 04:19:18;;;;;;;18.55;12.20;;;;;;;-0.41;64.63;99295.03;5106491;28;20044;-74
2023/01/30 04:21:45;;;;;;;19.83;12.40;;;;;;;-0.39;64.54;99282.84;5107388;28;20040;-74
2023/01/30 04:24:12;;;;;;;16.83;12.00;;;;;;;-0.40;64.44;99275.94;5107829;28;20052;-74
2023/01/30 04:26:40;;;;;;;15.80;11.45;;;;;;;-1.14;64.53;99178.75;5107445;28;20040;-74
2023/01/30 04:29:07;;;;;;;15.77;11.90;;;;;;;-0.39;64.52;99275.03;5106860;28;20040;-73
2023/01/30 04:31:33;;;;;;;17.73;12.55;;;;;;;-0.40;64.58;99276.78;5107111;28;20035;-73
2023/01/30 04:34:00;;;;;;;18.15;13.27;;;;;;;-0.41;64.54;99264.66;5106175;28;20044;-73
2023/01/30 04:36:31;;;;;;;16.85;11.90;;;;;;;-0.41;64.54;99275.06;5106344;28;20046;-73
2023/01/30 04:38:57;;;;;;;18.33;12.90;;;;;;;-0.41;64.65;99256.84;5106969;28;20039;-73
2023/01/30 04:41:24;;;;;;;20.20;13.45;;;;;;;-0.38;64.62;99254.19;5106825;28;20044;-73
2023/01/30 04:43:52;;;;;;;19.08;12.93;;;;;;;-0.39;64.46;99252.47;5107485;28;20048;-74
2023/01/30 04:46:19;;;;;;;17.63;13.43;;;;;;;-0.34;64.39;99239.38;5107140;28;20054;-74
2023/01/30 04:48:46;;;;;;;19.67;13.27;;;;;;;-0.36;64.45;99243.75;5105950;28;20040;-74
2023/01/30 04:51:13;;;;;;;22.05;14.02;;;;;;;-0.35;64.40;99263.72;5106709;28;20052;-74
2023/01/30 04:53:40;;;;;;;16.60;12.70;;;;;;;-0.34;64.59;99267.19;5106598;28;20222;-74
2023/01/30 04:56:08;;;;;;;19.55;13.95;;;;;;;-0.34;64.30;99277.59;5107081;28;20050;-74
2023/01/30 04:58:34;;;;;;;19.08;13.65;;;;;;;-0.33;64.46;99271.50;5105701;28;20028;-75
2023/01/30 05:01:21;;;;;;;17.98;13.60;;;;;;;-0.32;64.41;99263.66;5105724;28;20098;-74
2023/01/30 05:03:50;;;;;;;20.45;13.15;;;;;;;-0.33;64.39;99246.31;5106437;28;20325;-73
2023/01/30 05:06:18;;;;;;;17.80;12.70;;;;;;;-0.33;64.50;99271.50;5106407;28;20048;-74
2023/01/30 05:08:48;;;;;;;16.98;13.20;;;;;;;-0.35;64.59;99258.50;5106819;28;20048;-74
2023/01/30 05:11:15;;;;;;;19.80;13.75;;;;;;;-0.33;64.60;99256.75;5106886;28;20040;-74
2023/01/30 05:13:42;;;;;;;17.95;13.48;;;;;;;-0.34;64.54;99270.63;5105523;28;20051;-73
2023/01/30 05:16:09;;;;;;;19.77;13.55;;;;;;;-0.34;64.52;99252.41;5105459;28;20334;-74
2023/01/30 05:18:38;;;;;;;20.17;14.35;;;;;;;-0.32;64.61;99239.38;5106157;28;20047;-74
2023/01/30 05:21:06;;;;;;;18.67;13.05;;;;;;;-0.31;64.46;99241.97;5106266;28;20040;-74
2023/01/30 05:23:33;;;;;;;18.52;13.00;;;;;;;-0.31;64.35;99238.50;5106785;28;20054;-74
2023/01/30 05:26:00;;;;;;;18.48;13.32;;;;;;;-0.31;64.29;99256.72;5106701;28;20063;-73
2023/01/30 05:28:28;;;;;;;16.77;12.88;;;;;;;-0.28;64.33;99233.25;5106472;28;20040;-73
2023/01/30 05:30:55;;;;;;;16.77;12.65;;;;;;;-0.34;64.36;99223.78;5106181;28;20098;-74
2023/01/30 05:33:22;;;;;;;18.40;14.15;;;;;;;-0.28;64.31;99225.44;5105108;28;20031;-74
2023/01/30 05:35:50;;;;;;;19.40;13.55;;;;;;;-0.91;63.99;99126.47;5105241;28;20035;-74
2023/01/30 05:38:17;;;;;;;19.67;13.65;;;;;;;-0.27;64.02;99240.19;5104814;28;20047;-74
2023/01/30 05:40:44;;;;;;;19.63;13.68;;;;;;;-0.27;64.12;99224.53;5104953;28;20036;-74
2023/01/30 05:43:11;;;;;;;22.75;14.68;;;;;;;-0.71;63.89;99164.38;5106033;28;20067;-75
2023/01/30 05:45:38;;;;;;;19.65;14.88;;;;;;;-0.29;64.17;99227.16;5104893;28;20039;-75
2023/01/30 05:48:05;;;;;;;17.77;13.48;;;;;;;-0.25;64.03;99233.19;5105953;28;20038;-75
2023/01/30 05:50:32;;;;;;;16.08;12.52;;;;;;;-0.25;64.13;99243.63;5104750;28;20326;-75
2023/01/30 05:53:00;;;;;;;18.88;13.77;;;;;;;-0.26;64.23;99242.75;5106131;28;20058;-74
2023/01/30 05:55:26;;;;;;;18.50;13.35;;;;;;;-0.26;64.10;99253.19;5105857;28;20051;-74
2023/01/30 05:57:53;;;;;;;18.33;13.52;;;;;;;-0.24;64.08;99259.22;5106185;28;20040;-74
2023/01/30 06:00:21;;;;;;;17.27;12.45;;;;;;;-3.24;63.80;98729.22;5105848;28;20322;-75
2023/01/30 06:02:48;;;;;;;17.20;13.20;;;;;;;-0.26;63.92;99258.38;5105379;28;20051;-74
2023/01/30 06:05:14;;;;;;;20.05;12.38;;;;;;;-1.20;63.86;99078.25;5108129;28;20242;-75
2023/01/30 06:07:41;;;;;;;16.95;12.18;;;;;;;-0.26;63.97;99227.13;5112565;28;20302;-74
2023/01/30 06:10:11;;;;;;;16.27;12.27;;;;;;;-0.25;63.82;99200.19;5112905;28;20047;-74
2023/01/30 06:12:37;;;;;;;15.52;10.90;;;;;;;-0.24;63.86;99193.25;5112870;28;20048;-74
2023/01/30 06:15:05;;;;;;;15.27;11.45;;;;;;;-0.25;64.04;99209.75;5112254;28;20040;-74
2023/01/30 06:17:32;;;;;;;17.05;12.57;;;;;;;-0.26;63.84;99237.53;5112210;28;20040;-74
2023/01/30 06:19:58;;;;;;;16.95;12.50;;;;;;;-0.25;63.96;99241.88;5111414;28;20283;-73
2023/01/30 06:22:25;;;;;;;17.02;12.82;;;;;;;-0.24;63.83;99227.97;5112524;28;20043;-74
2023/01/30 06:24:52;;;;;;;17.15;12.57;;;;;;;-0.23;63.86;99226.22;5112472;28;20046;-74
2023/01/30 06:27:20;;;;;;;17.80;12.05;;;;;;;-0.24;63.86;99243.59;5112219;28;20048;-74
2023/01/30 06:29:47;;;;;;;17.15;13.50;;;;;;;-0.23;63.89;99221.00;5112485;28;20275;-74
2023/01/30 06:32:14;;;;;;;16.17;11.75;;;;;;;-0.22;63.77;99207.13;5112503;28;20040;-75
2023/01/30 06:34:41;;;;;;;17.25;12.55;;;;;;;-0.23;63.63;99221.00;5112694;28;20114;-74
2023/01/30 06:37:07;;;;;;;19.45;12.13;;;;;;;-0.23;63.53;99211.47;5111234;28;20036;-74
2023/01/30 06:39:34;;;;;;;18.73;12.73;;;;;;;-0.79;63.89;99108.97;5112413;28;20315;-75
2023/01/30 06:42:01;;;;;;;18.05;12.25;;;;;;;-0.30;63.70;99178.56;5094440;28;20050;-75
2023/01/30 06:44:29;;;;;;;16.52;11.52;;;;;;;-0.17;63.79;99176.66;5111179;28;20036;-74
2023/01/30 06:46:56;;;;;;;16.30;11.85;;;;;;;-0.18;63.63;99175.78;5112065;28;20036;-75
2023/01/30 06:49:23;;;;;;;17.45;12.48;;;;;;;-0.15;63.65;99177.50;5111166;28;20173;-74
2023/01/30 06:51:50;;;;;;;17.35;12.60;;;;;;;-0.13;63.62;99183.53;5112296;28;20194;-75
2023/01/30 06:54:17;;;;;;;15.50;11.18;;;;;;;-0.13;63.68;99180.94;5111841;28;20312;-75
2023/01/30 06:56:43;;;;;;;18.45;13.20;;;;;;;-0.11;63.71;99173.97;5112269;28;20052;-74
2023/01/30 06:59:10;;;;;;;16.42;12.43;;;;;;;-0.10;63.65;99173.94;5112380;28;20047;-74
2023/01/30 07:01:38;;;;;;;17.02;12.88;;;;;;;-0.10;63.46;99166.13;5112517;28;20069;-74
2023/01/30 07:04:05;;;;;;;14.77;10.88;;;;;;;-0.28;63.40;99137.75;5111698;28;20055;-75
2023/01/30 07:06:32;;;;;;;13.93;10.75;;;;;;;-0.06;63.32;99164.31;5112210;28;20063;-74
2023/01/30 07:08:59;;;;;;;17.52;11.95;;;;;;;-0.03;63.01;99161.66;5111709;28;20036;-76
2023/01/30 07:11:25;;;;;;;16.02;12.20;;;;;;;-0.02;62.95;99145.16;5112218;28;20184;-75
2023/01/30 07:13:52;;;;;;;14.80;10.68;;;;;;;0.01;62.98;99144.25;5112220;28;20047;-75
2023/01/30 07:16:19;;;;;;;16.60;11.95;;;;;;;0.04;62.96;99155.47;5109787;28;20055;-75
2023/01/30 07:18:47;;;;;;;15.20;11.23;;;;;;;0.03;62.92;99161.56;5107294;28;20039;-75
2023/01/30 07:21:14;;;;;;;14.65;10.68;;;;;;;0.07;62.73;99163.25;5108376;28;20199;-75
2023/01/30 07:23:42;;;;;;;14.43;10.27;;;;;;;0.09;62.37;99160.63;5108859;28;20050;-75
2023/01/30 07:26:09;;;;;;;14.27;11.05;;;;;;;0.13;62.37;99167.50;5108849;28;20040;-75
2023/01/30 07:28:35;;;;;;;16.98;11.65;;;;;;;0.14;61.80;99167.47;5108570;28;20056;-75
2023/01/30 07:31:02;;;;;;;14.02;10.38;;;;;;;0.18;61.99;99160.47;5108508;28;20105;-75
2023/01/30 07:33:29;;;;;;;14.30;11.02;;;;;;;-2.14;61.69;98783.25;5108489;28;20187;-75
2023/01/30 07:35:57;;;;;;;15.05;10.50;;;;;;;0.22;61.63;99169.97;5107173;28;20185;-75
2023/01/30 07:38:24;;;;;;;13.85;10.23;;;;;;;0.25;61.38;99194.22;5108551;28;20039;-75
2023/01/30 07:40:50;;;;;;;13.00;9.63;;;;;;;0.29;61.46;99202.84;5108328;28;20215;-75
2023/01/30 07:43:17;;;;;;;15.23;10.57;;;;;;;0.31;61.31;99205.44;5108121;28;20123;-75
2023/01/30 07:45:46;;;;;;;15.05;10.95;;;;;;;0.34;61.05;99202.78;5108493;28;20048;-75
2023/01/30 07:48:14;;;;;;;14.55;10.38;;;;;;;0.36;61.13;99174.94;5108550;28;20173;-75
2023/01/30 07:50:42;;;;;;;13.27;9.98;;;;;;;0.38;61.09;99188.81;5107952;28;20044;-76
2023/01/30 07:53:13;;;;;;;14.93;11.20;;;;;;;0.40;61.05;99160.97;5108229;28;20063;-76
2023/01/30 07:55:40;;;;;;;15.15;11.18;;;;;;;0.42;61.03;99173.09;5107039;28;20044;-75
2023/01/30 07:58:07;;;;;;;16.40;11.95;;;;;;;0.46;60.99;99164.31;5108030;28;20111;-75
2023/01/30 08:00:34;;;;;;;17.15;11.90;;;;;;;-0.12;60.32;99071.50;5106732;28;20043;-74
2023/01/30 08:03:01;;;;;;;14.43;10.88;;;;;;;0.53;60.98;99170.28;5107711;28;20070;-74
2023/01/30 08:05:28;;;;;;;17.95;12.77;;;;;;;0.56;60.84;99147.63;5106791;28;20169;-75
2023/01/30 08:07:55;;;;;;;16.02;12.00;;;;;;;0.61;60.75;99144.94;5107950;28;20040;-75
2023/01/30 08:10:24;;;;;;;15.20;10.65;;;;;;;0.61;60.27;99119.72;5107720;28;20302;-75
2023/01/30 08:12:51;;;;;;;15.07;10.50;;;;;;;0.66;60.72;99143.09;5107416;28;20051;-75
2023/01/30 08:15:18;;;;;;;18.77;12.68;;;;;;;0.40;60.29;99101.88;5107788;28;20180;-74
2023/01/30 08:17:44;;;;;;;16.02;10.90;;;;;;;0.72;60.33;99122.13;5106468;28;20047;-74
2023/01/30 08:20:15;;;;;;;16.70;10.88;;;;;;;0.77;59.91;99124.63;5107372;28;20058;-75
2023/01/30 08:22:41;;;;;;;16.80;11.18;;;;;;;0.79;59.82;99115.03;5107894;28;20056;-74
2023/01/30 08:25:08;;;;;;;14.38;11.48;;;;;;;0.79;59.69;99118.50;5107830;28;20270;-75
2023/01/30 08:27:36;;;;;;;14.63;10.98;;;;;;;-0.20;59.58;98950.09;5106203;28;20067;-75
2023/01/30 08:30:04;;;;;;;13.70;10.73;;;;;;;0.86;59.60;99093.16;5107441;28;20292;-75
2023/01/30 08:32:31;;;;;;;14.18;10.18;;;;;;;0.90;59.94;99100.88;5107323;28;20066;-74
2023/01/30 08:34:58;;;;;;;16.02;11.48;;;;;;;1.04;59.57;99081.47;5106195;28;20046;-74
2023/01/30 08:37:24;;;;;;;15.13;11.00;;;;;;;1.19;58.25;99083.75;5107382;28;20043;-75
2023/01/30 08:39:51;;;;;;;13.85;10.55;;;;;;;1.36;58.83;99073.81;5107108;28;20202;-74
2023/01/30 08:42:18;;;;;;;13.10;10.13;;;;;;;1.52;58.08;99053.41;5106161;28;20039;-74
2023/01/30 08:44:46;;;;;;;15.25;10.52;;;;;;;1.65;58.04;99060.09;5105932;28;20181;-74
2023/01/30 08:47:13;;;;;;;13.35;9.18;;;;;;;1.71;57.69;99041.66;5105984;28;20040;-75
2023/01/30 08:49:40;;;;;;;14.20;9.48;;;;;;;-1.08;56.91;98536.28;5107316;28;20054;-74
2023/01/30 08:52:06;;;;;;;10.80;8.60;;;;;;;1.92;57.16;99029.81;5106849;28;20043;-75
2023/01/30 08:54:33;;;;;;;13.73;9.73;;;;;;;1.94;56.82;99046.31;5107011;28;20307;-75
2023/01/30 08:57:00;;;;;;;13.48;9.50;;;;;;;1.99;56.42;99059.28;5107068;28;20300;-74
2023/01/30 08:59:27;;;;;;;13.95;9.90;;;;;;;2.10;56.46;99050.25;5107252;28;20040;-76
2023/01/30 09:01:55;;;;;;;12.63;10.25;;;;;;;2.20;56.28;99056.09;5106948;28;20097;-75
2023/01/30 09:04:23;;;;;;;13.40;9.68;;;;;;;2.28;56.04;99028.00;5106434;28;20062;-76
2023/01/30 09:06:50;;;;;;;14.35;11.10;;;;;;;2.25;55.73;99012.41;5106964;28;20036;-76
2023/01/30 09:09:17;;;;;;;13.35;9.45;;;;;;;2.17;55.13;99030.03;5105598;28;20215;-76
2023/01/30 09:11:46;;;;;;;14.43;10.25;;;;;;;2.11;55.58;99061.56;5106560;28;20050;-75
2023/01/30 09:14:13;;;;;;;13.00;9.85;;;;;;;2.08;55.97;99020.69;5106787;28;20036;-76
2023/01/30 09:16:39;;;;;;;12.48;9.82;;;;;;;2.04;55.48;99058.25;5106061;28;20239;-76
2023/01/30 09:19:08;;;;;;;12.07;9.32;;;;;;;2.05;55.81;99038.22;5106394;28;20330;-76
2023/01/30 09:21:35;;;;;;;13.82;10.70;;;;;;;2.07;56.21;99020.72;5105973;28;20043;-76
2023/01/30 09:24:01;;;;;;;14.02;10.23;;;;;;;2.05;56.03;99026.00;5106134;28;20172;-76
2023/01/30 09:26:28;;;;;;;13.65;9.30;;;;;;;2.03;55.59;99013.88;5106370;28;20292;-76
2023/01/30 09:28:55;;;;;;;12.65;9.88;;;;;;;2.06;55.64;99013.78;5105356;28;20200;-76
2023/01/30 09:31:22;;;;;;;11.27;8.40;;;;;;;2.07;55.76;99021.59;5105145;28;20040;-76
2023/01/30 09:33:48;;;;;;;11.68;8.80;;;;;;;2.06;55.53;99005.94;5106491;28;20043;-76
2023/01/30 09:36:17;;;;;;;11.80;8.90;;;;;;;2.08;55.59;99004.16;5106093;28;20211;-76
2023/01/30 09:38:43;;;;;;;11.50;8.73;;;;;;;2.06;55.41;99005.94;5106510;28;20080;-75
2023/01/30 09:41:40;;;;;;;11.73;8.35;;;;;;;2.08;54.13;99035.50;5105893;28;20040;-76
2023/01/30 09:44:29;;;;;;;10.60;7.80;;;;;;;1.91;54.31;98983.69;5105634;28;20044;-75
2023/01/30 09:47:04;;;;;;;12.30;8.90;;;;;;;2.11;54.44;99024.97;5106166;28;20067;-75
2023/01/30 09:49:38;;;;;;;;;;;;;;;2.08;52.16;99012.84;5106367;28;20063;-75
2023/01/30 09:52:19;;;;;;;9.27;7.05;;;;;;;2.15;53.84;99019.63;5105684;28;19987;-75
2023/01/30 09:54:46;;;;;;;11.40;8.07;;;;;;;2.20;55.11;98999.44;5106089;28;20084;-74
2023/01/30 09:57:17;;;;;;;9.88;6.70;;;;;;;2.30;54.42;98984.38;5105781;28;20052;-75
2023/01/30 09:59:52;;;;;;;10.77;7.68;;;;;;;2.43;54.13;98988.34;5105618;28;20043;-75
2023/01/30 10:02:26;;;;;;;;;;;;;;;2.44;52.21;98989.22;5106033;28;20043;-75
2023/01/30 10:04:55;;;;;;;19.80;9.75;;;;;;;2.60;54.95;98982.63;5105323;28;19915;-75
2023/01/30 10:07:32;;;;;;;8.57;6.50;;;;;;;2.79;53.77;98959.41;5106023;28;20331;-75
2023/01/30 10:10:08;;;;;;;8.32;6.22;;;;;;;2.94;53.78;98921.44;5104239;28;20036;-75
2023/01/30 10:12:48;;;;;;;9.65;6.97;;;;;;;3.07;53.68;98922.75;5106040;28;20048;-75
2023/01/30 10:15:30;;;;;;;7.93;5.25;;;;;;;3.11;53.24;98947.94;5105432;28;20039;-75
2023/01/30 10:18:44;;;;;;;8.38;5.70;;;;;;;3.12;52.92;98889.44;5105141;28;20052;-76
2023/01/30 10:21:21;;;;;;;8.20;6.00;;;;;;;3.07;53.90;98888.72;5069652;28;20052;-75
2023/01/30 10:24:02;;;;;;;7.43;4.90;;;;;;;3.06;53.47;98900.97;5105907;28;20056;-75
2023/01/30 10:26:31;;;;;;;9.90;6.47;;;;;;;3.01;53.84;98907.25;5105859;28;20036;-75
2023/01/30 10:29:04;;;;;;;17.13;7.15;;;;;;;2.94;53.69;98885.66;5105575;28;20055;-75
2023/01/30 10:31:37;;;;;;;8.65;5.95;;;;;;;2.89;53.83;98871.84;5105838;28;20085;-75
2023/01/30 10:34:06;;;;;;;7.53;5.57;;;;;;;2.24;55.27;98775.34;5104300;28;20048;-76
2023/01/30 10:36:41;;;;;;;7.93;5.50;;;;;;;2.12;54.47;98741.75;5105287;28;20042;-76
2023/01/30 10:39:24;;;;;;;7.55;5.90;;;;;;;2.76;53.81;98876.63;5104405;28;20043;-76
2023/01/30 10:41:58;;;;;;;6.95;5.68;;;;;;;2.73;54.98;98878.47;5104225;28;20047;-75
2023/01/30 10:44:25;;;;;;;7.35;5.03;;;;;;;2.71;55.11;98882.88;5105067;28;20052;-75
2023/01/30 10:47:22;;;;;;;7.07;5.75;;;;;;;2.70;53.94;98866.34;5105101;28;20040;-76
2023/01/30 10:49:52;;;;;;;6.70;4.90;;;;;;;2.72;55.09;98880.22;5104345;28;20044;-75
2023/01/30 10:52:30;;;;;;;6.25;4.70;;;;;;;2.16;54.34;98782.56;5107397;28;20047;-75
2023/01/30 10:55:11;;;;;;;6.45;4.65;;;;;;;2.03;53.68;98783.84;5109007;28;20271;-76
2023/01/30 10:57:55;;;;;;;6.93;5.07;;;;;;;2.71;53.31;98875.91;5108321;28;20040;-75
2023/01/30 11:00:28;;;;;;;8.32;4.75;;;;;;;2.71;53.79;98861.97;5106591;28;20040;-76
2023/01/30 11:03:12;;;;;;;7.40;4.97;;;;;;;2.09;53.28;98737.47;5107979;28;20051;-76
2023/01/30 11:05:45;;;;;;;6.95;4.95;;;;;;;3.05;53.98;98830.31;5108148;28;20048;-76
2023/01/30 11:08:21;;;;;;;6.97;5.32;;;;;;;3.15;52.04;98850.06;5108823;28;20172;-75
2023/01/30 11:10:54;;;;;;;6.68;4.45;;;;;;;0.33;52.65;98331.31;5108814;28;20044;-75
2023/01/30 11:13:24;;;;;;;6.22;4.28;;;;;;;3.58;53.68;98844.22;5108665;28;20036;-75
2023/01/30 11:15:53;;;;;;;5.63;4.13;;;;;;;3.84;52.70;98838.91;5108870;28;20044;-75
2023/01/30 11:18:23;;;;;;;6.88;4.35;;;;;;;4.07;52.10;98834.59;5108547;28;20040;-75
2023/01/30 11:21:02;;;;;;;5.25;3.80;;;;;;;4.19;50.10;98815.75;5108168;28;20300;-75
2023/01/30 11:23:34;;;;;;;5.75;4.45;;;;;;;4.33;50.08;98820.50;5108531;28;20048;-75
2023/01/30 11:26:04;;;;;;;5.32;4.18;;;;;;;4.43;49.52;98819.25;5108409;28;20039;-75
2023/01/30 11:28:39;;;;;;;6.93;4.38;;;;;;;4.43;47.91;98793.88;5108439;28;20052;-75
2023/01/30 11:31:14;;;;;;;5.20;4.05;;;;;;;4.39;50.36;98775.69;5108826;28;20043;-75
2023/01/30 11:33:41;;;;;;;5.60;4.28;;;;;;;4.48;50.37;98789.28;5108884;28;20051;-75
2023/01/30 11:36:25;;;;;;;6.13;4.35;;;;;;;4.63;46.85;98787.81;5107319;28;20040;-75
2023/01/30 11:38:57;;;;;;;5.20;3.90;;;;;;;4.62;48.34;98732.78;5108161;28;20043;-76
2023/01/30 11:41:25;;;;;;;6.03;4.45;;;;;;;4.86;49.91;98747.50;5108460;28;20051;-75